createdAt,value
2023-05-02T00:04:28.215Z,70.25
2023-05-02T00:06:59.353Z,65.85
2023-05-02T00:09:27.067Z,63.38
2023-05-02T00:11:55.021Z,54.72
2023-05-02T00:14:26.205Z,52.58
2023-05-02T00:17:01.330Z,46.25
2023-05-02T00:19:28.931Z,48.97
2023-05-02T00:21:56.866Z,51.53
2023-05-02T00:24:27.941Z,59.42
2023-05-02T00:26:56.050Z,56.55
2023-05-02T00:29:24.009Z,52.97
2023-05-02T00:31:52.176Z,49.15
2023-05-02T00:34:20.534Z,39.33
2023-05-02T00:36:49.311Z,34.03
2023-05-02T00:39:18.620Z,33.67
2023-05-02T00:44:28.476Z,28.52
2023-05-02T00:46:59.922Z,34.17
2023-05-02T00:49:27.387Z,31.10
2023-05-02T00:51:55.875Z,35.25
2023-05-02T00:54:24.055Z,35.90
2023-05-02T00:56:51.741Z,41.67
2023-05-02T00:59:22.670Z,50.10
2023-05-02T01:02:05.963Z,45.92
2023-05-02T01:05:01.555Z,45.28
2023-05-02T01:07:52.639Z,47.72
2023-05-02T01:10:20.847Z,47.25
2023-05-02T01:13:11.158Z,53.50
2023-05-02T01:15:40.272Z,56.47
2023-05-02T01:18:09.982Z,52.97
2023-05-02T01:20:41.973Z,59.55
2023-05-02T01:23:29.938Z,63.08
2023-05-02T01:26:04.271Z,59.55
2023-05-02T01:28:38.263Z,58.35
2023-05-02T01:31:07.336Z,60.10
2023-05-02T01:33:36.801Z,60.03
2023-05-02T01:36:06.100Z,59.22
2023-05-02T01:38:36.401Z,58.30
2023-05-02T01:41:07.340Z,52.38
2023-05-02T01:43:36.049Z,54.30
2023-05-02T01:46:05.117Z,50.78
2023-05-02T01:48:33.183Z,54.42
2023-05-02T01:51:01.676Z,51.60
2023-05-02T01:53:30.612Z,57.28
2023-05-02T01:56:00.454Z,54.90
2023-05-02T01:58:30.465Z,52.95
2023-05-02T02:01:01.746Z,54.20
2023-05-02T02:03:32.232Z,54.35
2023-05-02T02:06:01.376Z,53.00
2023-05-02T02:08:30.134Z,48.25
2023-05-02T02:11:05.695Z,46.97
2023-05-02T02:13:39.902Z,45.80
2023-05-02T02:16:11.355Z,44.75
2023-05-02T02:18:39.879Z,47.75
2023-05-02T02:21:10.723Z,49.70
2023-05-02T02:23:39.632Z,43.05
2023-05-02T02:26:07.629Z,47.70
2023-05-02T02:28:43.103Z,44.15
2023-05-02T02:31:12.492Z,44.05
2023-05-02T02:33:40.310Z,40.95
2023-05-02T02:36:08.446Z,41.10
2023-05-02T02:38:49.189Z,42.00
2023-05-02T02:41:19.844Z,34.38
2023-05-02T02:43:50.253Z,37.58
2023-05-02T02:48:58.194Z,29.40
2023-05-02T02:51:49.301Z,27.48
2023-05-02T02:54:26.596Z,20.52
2023-05-02T02:57:04.762Z,17.83
2023-05-02T02:59:36.597Z,19.27
2023-05-02T03:02:08.876Z,20.30
2023-05-02T03:04:39.117Z,13.13
2023-05-02T03:07:06.524Z,14.70
2023-05-02T03:09:48.999Z,18.60
2023-05-02T03:12:21.994Z,17.30
2023-05-02T03:14:51.258Z,14.55
2023-05-02T03:17:19.494Z,20.00
2023-05-02T03:19:50.938Z,20.98
2023-05-02T03:22:19.400Z,20.50
2023-05-02T03:24:48.125Z,13.80
2023-05-02T03:27:17.143Z,18.33
2023-05-02T03:29:45.057Z,14.90
2023-05-02T03:32:14.272Z,19.15
2023-05-02T03:34:44.480Z,17.92
2023-05-02T03:37:12.637Z,17.40
2023-05-02T03:39:40.250Z,17.63
2023-05-02T03:42:08.042Z,11.00
2023-05-02T03:44:35.702Z,9.73
2023-05-02T03:47:04.060Z,10.68
2023-05-02T03:49:40.572Z,10.88
2023-05-02T03:52:09.788Z,10.20
2023-05-02T03:54:38.769Z,13.13
2023-05-02T03:57:06.744Z,13.25
2023-05-02T03:59:41.852Z,12.13
2023-05-02T04:02:19.729Z,16.02
2023-05-02T04:09:58.006Z,12.10
2023-05-02T04:12:26.726Z,13.82
2023-05-02T04:14:57.088Z,12.57
2023-05-02T04:17:28.785Z,19.17
2023-05-02T04:19:58.445Z,15.60
2023-05-02T04:22:34.831Z,7.68
2023-05-02T04:25:07.731Z,13.25
2023-05-02T04:27:38.718Z,8.60
2023-05-02T04:30:10.875Z,9.75
2023-05-02T04:32:39.852Z,14.10
2023-05-02T04:35:08.107Z,12.63
2023-05-02T04:37:38.040Z,8.95
2023-05-02T04:40:15.905Z,14.70
2023-05-02T04:42:48.273Z,13.02
2023-05-02T04:45:20.563Z,9.10
2023-05-02T04:47:49.752Z,10.70
2023-05-02T04:50:18.757Z,14.55
2023-05-02T04:52:51.568Z,12.32
2023-05-02T04:55:20.772Z,11.85
2023-05-02T04:57:49.715Z,14.35
2023-05-02T05:00:22.222Z,10.70
2023-05-02T05:02:56.060Z,12.98
2023-05-02T05:05:23.905Z,11.18
2023-05-02T05:07:53.135Z,12.60
2023-05-02T05:10:23.509Z,15.55
2023-05-02T05:12:54.321Z,8.30
2023-05-02T05:15:24.454Z,10.23
2023-05-02T05:17:56.865Z,14.13
2023-05-02T05:20:24.921Z,9.65
2023-05-02T05:22:56.294Z,13.65
2023-05-02T05:25:26.730Z,14.07
2023-05-02T05:27:56.836Z,17.75
2023-05-02T05:30:27.103Z,12.23
2023-05-02T05:32:55.060Z,9.55
2023-05-02T05:35:22.635Z,12.80
2023-05-02T05:37:50.573Z,20.20
2023-05-02T05:40:19.595Z,14.63
2023-05-02T05:42:52.693Z,11.43
2023-05-02T05:45:33.527Z,11.70
2023-05-02T05:48:03.841Z,7.90
2023-05-02T05:50:36.207Z,10.57
2023-05-02T05:53:04.407Z,9.70
2023-05-02T05:55:32.769Z,18.90
2023-05-02T06:00:30.194Z,10.40
2023-05-02T06:02:59.589Z,12.55
2023-05-02T06:05:31.101Z,10.00
2023-05-02T06:08:00.746Z,13.50
2023-05-02T06:10:28.556Z,10.55
2023-05-02T06:12:57.131Z,10.57
2023-05-02T06:15:29.810Z,9.25
2023-05-02T06:17:58.524Z,13.27
2023-05-02T06:20:26.538Z,14.07
2023-05-02T06:22:54.249Z,12.02
2023-05-02T06:25:21.859Z,7.72
2023-05-02T06:27:50.559Z,5.65
2023-05-02T06:30:18.999Z,12.43
2023-05-02T06:32:47.892Z,12.50
2023-05-02T06:35:17.077Z,9.48
2023-05-02T06:37:45.400Z,8.18
2023-05-02T06:40:13.976Z,8.30
2023-05-02T06:42:41.428Z,11.02
2023-05-02T06:45:10.682Z,10.88
2023-05-02T06:47:39.012Z,12.20
2023-05-02T06:50:08.969Z,16.13
2023-05-02T06:52:36.595Z,16.30
2023-05-02T06:55:04.267Z,12.60
2023-05-02T06:57:31.938Z,10.07
2023-05-02T06:59:59.990Z,14.57
2023-05-02T07:02:27.998Z,16.23
2023-05-02T07:04:57.817Z,10.43
2023-05-02T07:07:29.104Z,10.85
2023-05-02T07:09:58.211Z,11.18
2023-05-02T07:12:27.143Z,13.30
2023-05-02T07:14:55.044Z,21.27
2023-05-02T07:17:23.575Z,23.77
2023-05-02T07:19:56.909Z,16.15
2023-05-02T07:22:24.767Z,14.50
2023-05-02T07:25:03.210Z,14.50
2023-05-02T07:27:31.087Z,16.15
2023-05-02T07:30:02.473Z,12.48
2023-05-02T07:32:31.471Z,13.23
2023-05-02T07:34:59.322Z,14.45
2023-05-02T07:37:27.462Z,15.40
2023-05-02T07:39:54.957Z,13.38
2023-05-02T07:42:30.155Z,21.42
2023-05-02T07:45:01.284Z,14.35
2023-05-02T07:47:29.783Z,12.43
2023-05-02T07:50:00.140Z,12.07
2023-05-02T07:52:28.745Z,11.07
2023-05-02T07:54:57.131Z,11.77
2023-05-02T07:57:25.649Z,11.48
2023-05-02T07:59:53.170Z,13.30
2023-05-02T08:02:21.892Z,10.60
2023-05-02T08:04:50.330Z,9.13
2023-05-02T08:07:18.909Z,20.50
2023-05-02T08:09:49.136Z,12.63
2023-05-02T08:12:18.078Z,16.77
2023-05-02T08:14:45.845Z,6.80
2023-05-02T08:17:15.101Z,5.53
2023-05-02T08:19:42.544Z,8.02
2023-05-02T08:22:10.097Z,10.77
2023-05-02T08:24:38.506Z,8.73
2023-05-02T08:27:06.894Z,9.00
2023-05-02T08:29:34.762Z,8.40
2023-05-02T08:32:02.783Z,6.28
2023-05-02T08:34:31.091Z,9.35
2023-05-02T08:36:59.185Z,12.38
2023-05-02T08:39:26.832Z,10.35
2023-05-02T08:41:57.013Z,10.70
2023-05-02T08:44:24.579Z,11.85
2023-05-02T08:46:53.340Z,9.18
2023-05-02T08:49:21.858Z,8.18
2023-05-02T08:51:52.298Z,10.52
2023-05-02T08:54:26.024Z,7.78
2023-05-02T08:56:59.707Z,12.15
2023-05-02T08:59:27.676Z,13.70
2023-05-02T09:02:01.763Z,17.85
2023-05-02T09:04:35.037Z,10.40
2023-05-02T09:07:02.912Z,9.00
2023-05-02T09:09:32.889Z,14.25
2023-05-02T09:12:01.904Z,11.48
2023-05-02T09:14:29.645Z,10.55
2023-05-02T09:17:01.086Z,14.63
2023-05-02T09:19:28.914Z,8.10
2023-05-02T09:22:02.886Z,8.82
2023-05-02T09:24:31.005Z,6.93
2023-05-02T09:27:05.608Z,12.48
2023-05-02T09:29:39.270Z,9.88
2023-05-02T09:32:07.685Z,6.78
2023-05-02T09:34:37.600Z,5.75
2023-05-02T09:37:06.616Z,10.68
2023-05-02T09:39:34.034Z,4.30
2023-05-02T09:42:02.793Z,7.25
2023-05-02T09:44:37.492Z,10.70
2023-05-02T09:47:06.969Z,5.53
2023-05-02T09:49:50.329Z,3.17
2023-05-02T09:52:23.910Z,8.05
2023-05-02T09:54:53.725Z,8.68
2023-05-02T09:57:22.029Z,8.05
2023-05-02T10:00:02.347Z,9.48
2023-05-02T10:02:40.480Z,9.50
2023-05-02T10:05:10.200Z,6.30
2023-05-02T10:07:38.025Z,4.45
2023-05-02T10:10:06.111Z,9.30
2023-05-02T10:12:34.739Z,7.90
2023-05-02T10:15:04.861Z,5.57
2023-05-02T10:17:36.218Z,4.25
2023-05-02T10:20:07.958Z,11.48
2023-05-02T10:22:36.999Z,8.10
2023-05-02T10:25:06.168Z,7.28
2023-05-02T10:27:37.889Z,7.07
2023-05-02T10:30:06.735Z,7.15
2023-05-02T10:32:34.902Z,8.10
2023-05-02T10:35:06.502Z,7.07
2023-05-02T10:37:56.865Z,7.13
2023-05-02T10:43:27.457Z,8.18
2023-05-02T10:45:55.259Z,10.15
2023-05-02T10:48:25.201Z,10.52
2023-05-02T10:50:54.580Z,6.95
2023-05-02T10:53:28.291Z,8.90
2023-05-02T10:56:08.362Z,8.05
2023-05-02T10:58:36.021Z,7.85
2023-05-02T11:01:23.408Z,8.38
2023-05-02T11:03:58.525Z,8.40
2023-05-02T11:06:27.623Z,8.18
2023-05-02T11:09:19.261Z,8.20
2023-05-02T11:11:47.573Z,5.53
2023-05-02T11:14:33.434Z,9.85
2023-05-02T11:17:04.659Z,7.82
2023-05-02T11:19:53.285Z,7.75
2023-05-02T11:22:22.014Z,8.77
2023-05-02T11:24:50.313Z,8.23
2023-05-02T11:27:30.753Z,5.68
2023-05-02T11:32:27.532Z,6.53
2023-05-02T11:34:56.242Z,7.50
2023-05-02T11:37:25.010Z,11.77
2023-05-02T11:39:53.243Z,7.75
2023-05-02T11:42:31.234Z,5.60
2023-05-02T11:44:59.813Z,10.75
2023-05-02T11:47:30.377Z,8.50
2023-05-02T11:52:26.186Z,7.32
2023-05-02T11:54:57.262Z,11.55
2023-05-02T11:57:25.502Z,8.13
2023-05-02T11:59:53.748Z,11.10
2023-05-02T12:02:22.499Z,7.53
2023-05-02T12:04:53.675Z,8.52
2023-05-02T12:07:21.200Z,9.90
2023-05-02T12:09:53.245Z,10.75
2023-05-02T12:12:21.776Z,7.07
2023-05-02T12:14:51.696Z,11.50
2023-05-02T12:17:20.016Z,15.48
2023-05-02T12:19:49.286Z,10.00
2023-05-02T12:22:19.664Z,8.27
2023-05-02T12:27:17.550Z,7.15
2023-05-02T12:29:48.646Z,10.13
2023-05-02T12:32:28.346Z,11.57
2023-05-02T12:34:56.193Z,10.90
2023-05-02T12:37:30.557Z,7.45
2023-05-02T12:39:58.054Z,11.23
2023-05-02T12:42:27.567Z,9.63
2023-05-02T12:44:57.482Z,9.30
2023-05-02T12:47:26.403Z,7.47
2023-05-02T12:49:57.971Z,9.07
2023-05-02T12:52:45.573Z,8.00
2023-05-02T12:55:18.422Z,9.90
2023-05-02T12:57:46.354Z,7.15
2023-05-02T13:00:17.866Z,6.75
2023-05-02T13:02:45.990Z,8.30
2023-05-02T13:05:16.091Z,11.05
2023-05-02T13:07:44.865Z,9.13
2023-05-02T13:10:14.053Z,9.18
2023-05-02T13:12:42.779Z,9.15
2023-05-02T13:15:11.495Z,12.07
2023-05-02T13:17:43.740Z,8.88
2023-05-02T13:20:12.076Z,15.70
2023-05-02T13:22:39.646Z,9.85
2023-05-02T13:25:08.699Z,12.45
2023-05-02T13:27:36.328Z,17.05
2023-05-02T13:30:08.507Z,10.20
2023-05-02T13:32:37.009Z,13.77
2023-05-02T13:35:05.113Z,9.70
2023-05-02T13:37:32.561Z,5.40
2023-05-02T13:40:00.836Z,12.75
2023-05-02T13:42:29.331Z,12.60
2023-05-02T13:44:58.061Z,9.05
2023-05-02T13:47:27.269Z,14.05
2023-05-02T13:49:54.863Z,10.48
2023-05-02T13:52:23.004Z,12.57
2023-05-02T13:54:53.550Z,13.02
2023-05-02T13:57:21.125Z,15.48
2023-05-02T13:59:52.262Z,9.80
2023-05-02T14:02:21.903Z,12.52
2023-05-02T14:04:49.696Z,7.75
2023-05-02T14:07:18.951Z,11.65
2023-05-02T14:09:48.163Z,7.38
2023-05-02T14:12:16.426Z,10.68
2023-05-02T14:14:47.592Z,9.43
2023-05-02T14:17:17.857Z,8.40
2023-05-02T14:19:45.472Z,9.80
2023-05-02T14:22:14.402Z,8.57
2023-05-02T14:24:42.304Z,13.45
2023-05-02T14:27:22.880Z,12.13
2023-05-02T14:29:50.672Z,11.32
2023-05-02T14:32:18.999Z,9.00
2023-05-02T14:34:50.778Z,14.10
2023-05-02T14:37:20.957Z,9.45
2023-05-02T14:42:23.525Z,9.38
2023-05-02T14:44:51.566Z,11.15
2023-05-02T14:47:19.811Z,12.38
2023-05-02T14:49:48.660Z,9.70
2023-05-02T14:52:17.821Z,12.68
2023-05-02T14:54:47.572Z,11.48
2023-05-02T14:57:15.742Z,19.00
2023-05-02T14:59:43.220Z,9.70
2023-05-02T15:02:11.305Z,9.70
2023-05-02T15:04:39.000Z,9.02
2023-05-02T15:07:07.172Z,10.88
2023-05-02T15:09:34.917Z,9.57
2023-05-02T15:12:06.363Z,11.82
2023-05-02T15:14:34.130Z,10.57
2023-05-02T15:17:02.493Z,10.25
2023-05-02T15:19:31.001Z,13.00
2023-05-02T15:21:59.189Z,16.10
2023-05-02T15:24:27.769Z,18.10
2023-05-02T15:26:56.445Z,11.57
2023-05-02T15:29:24.273Z,13.05
2023-05-02T15:31:51.891Z,15.52
2023-05-02T15:34:22.485Z,10.48
2023-05-02T15:36:49.963Z,14.43
2023-05-02T15:39:25.017Z,15.32
2023-05-02T15:41:53.835Z,9.98
2023-05-02T15:44:22.067Z,12.40
2023-05-02T15:46:49.976Z,11.73
2023-05-02T15:49:19.464Z,14.98
2023-05-02T15:51:48.482Z,9.30
2023-05-02T15:54:16.458Z,10.27
2023-05-02T15:56:45.225Z,9.73
2023-05-02T15:59:12.955Z,10.02
2023-05-02T16:01:41.260Z,11.43
2023-05-02T16:04:10.127Z,12.07
2023-05-02T16:06:38.275Z,11.25
2023-05-02T16:09:06.953Z,13.43
2023-05-02T16:11:35.241Z,9.60
2023-05-02T16:14:02.912Z,6.82
2023-05-02T16:16:31.179Z,13.27
2023-05-02T16:18:59.723Z,10.50
2023-05-02T16:21:27.584Z,13.05
2023-05-02T16:23:55.349Z,15.25
2023-05-02T16:26:23.934Z,12.38
2023-05-02T16:28:52.165Z,10.95
2023-05-02T16:31:19.948Z,13.73
2023-05-02T16:33:49.904Z,15.30
2023-05-02T16:36:21.263Z,7.88
2023-05-02T16:38:49.904Z,10.60
2023-05-02T16:41:19.225Z,13.18
2023-05-02T16:43:47.974Z,6.60
2023-05-02T16:46:18.771Z,10.27
2023-05-02T16:48:47.339Z,16.05
2023-05-02T16:51:15.320Z,10.25
2023-05-02T16:53:43.991Z,10.60
2023-05-02T16:56:11.725Z,10.18
2023-05-02T16:58:39.368Z,9.30
2023-05-02T17:01:07.277Z,9.70
2023-05-02T17:03:35.007Z,12.23
2023-05-02T17:06:03.088Z,14.05
2023-05-02T17:08:30.769Z,10.88
2023-05-02T17:10:58.331Z,9.20
2023-05-02T17:13:26.108Z,10.32
2023-05-02T17:15:54.321Z,14.98
2023-05-02T17:18:22.218Z,12.20
2023-05-02T17:20:51.827Z,9.20
2023-05-02T17:23:19.821Z,12.25
2023-05-02T17:25:49.198Z,8.40
2023-05-02T17:28:17.405Z,9.25
2023-05-02T17:30:45.237Z,11.13
2023-05-02T17:33:13.188Z,11.80
2023-05-02T17:35:41.478Z,8.52
2023-05-02T17:38:09.323Z,7.75
2023-05-02T17:40:38.208Z,12.98
2023-05-02T17:43:07.378Z,4.93
2023-05-02T17:45:36.327Z,10.93
2023-05-02T17:48:04.070Z,7.05
2023-05-02T17:50:33.007Z,11.80
2023-05-02T17:53:00.765Z,7.82
2023-05-02T17:55:28.212Z,4.68
2023-05-02T17:57:59.298Z,10.07
2023-05-02T18:00:30.411Z,6.78
2023-05-02T18:02:58.199Z,4.95
2023-05-02T18:05:27.053Z,9.20
2023-05-02T18:07:55.770Z,8.63
2023-05-02T18:10:24.646Z,8.02
2023-05-02T18:12:53.171Z,5.20
2023-05-02T18:15:21.075Z,5.03
2023-05-02T18:17:49.275Z,7.07
2023-05-02T18:20:17.370Z,4.38
2023-05-02T18:22:45.023Z,5.03
2023-05-02T18:25:13.656Z,4.40
2023-05-02T18:27:41.333Z,6.88
2023-05-02T18:30:09.763Z,14.90
2023-05-02T18:32:37.503Z,11.27
2023-05-02T18:35:10.019Z,7.68
2023-05-02T18:37:37.962Z,4.95
2023-05-02T18:40:05.803Z,6.13
2023-05-02T18:42:33.965Z,5.20
2023-05-02T18:45:01.669Z,5.30
2023-05-02T18:47:32.177Z,7.85
2023-05-02T18:50:01.728Z,7.50
2023-05-02T18:52:31.329Z,7.00
2023-05-02T18:54:59.498Z,5.90
2023-05-02T18:57:27.571Z,6.15
2023-05-02T18:59:55.235Z,4.10
2023-05-02T19:02:23.153Z,5.45
2023-05-02T19:04:50.871Z,5.78
2023-05-02T19:07:19.486Z,8.93
2023-05-02T19:09:47.573Z,6.72
2023-05-02T19:12:15.925Z,4.82
2023-05-02T19:14:44.980Z,7.43
2023-05-02T19:17:12.942Z,9.20
2023-05-02T19:19:41.910Z,10.02
2023-05-02T19:22:09.488Z,8.18
2023-05-02T19:24:38.391Z,4.53
2023-05-02T19:27:07.907Z,7.30
2023-05-02T19:29:38.684Z,3.67
2023-05-02T19:32:06.580Z,6.93
2023-05-02T19:34:37.734Z,10.80
2023-05-02T19:37:07.162Z,5.63
2023-05-02T19:39:34.818Z,7.82
2023-05-02T19:42:03.454Z,7.05
2023-05-02T19:44:31.978Z,8.25
2023-05-02T19:47:00.496Z,5.93
2023-05-02T19:49:28.263Z,6.40
2023-05-02T19:51:55.952Z,8.13
2023-05-02T19:54:27.148Z,7.35
2023-05-02T19:56:54.881Z,6.80
2023-05-02T19:59:22.427Z,6.32
2023-05-02T20:01:50.850Z,5.70
2023-05-02T20:04:20.455Z,4.80
2023-05-02T20:06:48.848Z,5.25
2023-05-02T20:09:17.521Z,6.93
2023-05-02T20:11:45.326Z,6.40
2023-05-02T20:14:22.802Z,4.35
2023-05-02T20:16:51.464Z,5.88
2023-05-02T20:19:21.897Z,4.25
2023-05-02T20:21:49.951Z,5.32
2023-05-02T20:24:18.583Z,7.25
2023-05-02T20:26:48.622Z,3.30
2023-05-02T20:29:17.371Z,4.78
2023-05-02T20:31:44.954Z,3.65
2023-05-02T20:34:13.071Z,6.68
2023-05-02T20:36:41.078Z,6.22
2023-05-02T20:39:10.175Z,3.40
2023-05-02T20:41:38.643Z,2.38
2023-05-02T20:44:06.431Z,5.38
2023-05-02T20:46:34.219Z,6.68
2023-05-02T20:49:02.464Z,5.78
2023-05-02T20:51:30.588Z,5.68
2023-05-02T20:53:59.537Z,5.50
2023-05-02T20:56:27.573Z,7.82
2023-05-02T20:58:55.449Z,6.38
2023-05-02T21:01:23.532Z,4.78
2023-05-02T21:03:51.320Z,4.85
2023-05-02T21:06:21.242Z,5.43
2023-05-02T21:08:50.354Z,10.90
2023-05-02T21:11:18.754Z,4.88
2023-05-02T21:13:48.144Z,4.93
2023-05-02T21:16:17.932Z,3.28
2023-05-02T21:18:47.693Z,3.70
2023-05-02T21:21:15.408Z,5.25
2023-05-02T21:23:43.027Z,8.73
2023-05-02T21:26:10.912Z,3.40
2023-05-02T21:28:38.938Z,3.22
2023-05-02T21:31:07.782Z,6.10
2023-05-02T21:33:35.886Z,4.50
2023-05-02T21:36:03.531Z,7.03
2023-05-02T21:38:31.233Z,4.47
2023-05-02T21:41:01.830Z,7.07
2023-05-02T21:46:01.169Z,4.55
2023-05-02T21:48:28.957Z,5.13
2023-05-02T21:50:56.688Z,5.47
2023-05-02T21:53:24.390Z,6.20
2023-05-02T21:55:52.439Z,5.35
2023-05-02T21:58:20.131Z,6.40
2023-05-02T22:00:51.246Z,5.07
2023-05-02T22:03:20.190Z,3.53
2023-05-02T22:05:50.046Z,5.10
2023-05-02T22:08:20.644Z,4.68
2023-05-02T22:10:49.493Z,7.53
2023-05-02T22:13:17.938Z,4.70
2023-05-02T22:15:47.414Z,10.00
2023-05-02T22:18:17.636Z,5.50
2023-05-02T22:20:46.334Z,7.97
2023-05-02T22:23:15.163Z,7.17
2023-05-02T22:25:44.557Z,9.00
2023-05-02T22:28:12.390Z,7.35
2023-05-02T22:30:42.574Z,4.82
2023-05-02T22:33:10.161Z,7.03
2023-05-02T22:35:38.309Z,8.95
2023-05-02T22:38:05.991Z,6.93
2023-05-02T22:40:34.156Z,4.85
2023-05-02T22:43:02.876Z,10.82
2023-05-02T22:45:30.942Z,8.75
2023-05-02T22:48:00.372Z,9.48
2023-05-02T22:50:28.546Z,9.30
2023-05-02T22:52:59.867Z,10.40
2023-05-02T22:55:27.725Z,8.85
2023-05-02T22:57:56.097Z,6.38
2023-05-02T23:00:23.823Z,7.13
2023-05-02T23:02:51.530Z,8.30
2023-05-02T23:05:19.870Z,5.80
2023-05-02T23:07:48.221Z,6.65
2023-05-02T23:10:20.175Z,6.18
2023-05-02T23:12:48.680Z,5.70
2023-05-02T23:15:20.409Z,9.73
2023-05-02T23:17:49.358Z,6.65
2023-05-02T23:20:19.665Z,4.78
2023-05-02T23:22:48.426Z,7.80
2023-05-02T23:25:16.404Z,5.90
2023-05-02T23:27:44.732Z,6.90
2023-05-02T23:30:12.589Z,7.22
2023-05-02T23:32:40.379Z,7.60
2023-05-02T23:35:08.461Z,5.28
2023-05-02T23:37:36.378Z,5.07
2023-05-02T23:40:05.179Z,4.32
2023-05-02T23:42:34.848Z,7.10
2023-05-02T23:45:02.561Z,9.10
2023-05-02T23:47:30.217Z,6.90
2023-05-02T23:49:57.921Z,9.07
2023-05-02T23:52:25.620Z,13.80
2023-05-02T23:54:54.656Z,7.90
2023-05-02T23:57:22.586Z,4.10
2023-05-02T23:59:53.510Z,7.28
